createdAt,value
2023-01-30T00:01:26.340Z,53.38
2023-01-30T00:03:53.854Z,59.03
2023-01-30T00:06:21.281Z,59.25
2023-01-30T00:08:48.957Z,58.25
2023-01-30T00:11:16.954Z,57.13
2023-01-30T00:13:44.565Z,58.03
2023-01-30T00:16:12.127Z,55.08
2023-01-30T00:18:39.840Z,52.75
2023-01-30T00:21:08.117Z,47.63
2023-01-30T00:23:35.973Z,46.40
2023-01-30T00:26:03.508Z,43.63
2023-01-30T00:28:30.936Z,43.72
2023-01-30T00:30:58.464Z,38.95
2023-01-30T00:33:26.270Z,38.30
2023-01-30T00:35:54.599Z,37.30
2023-01-30T00:38:22.163Z,40.40
2023-01-30T00:40:49.687Z,37.45
2023-01-30T00:43:36.578Z,37.60
2023-01-30T00:46:23.065Z,34.63
2023-01-30T00:48:50.469Z,37.20
2023-01-30T00:51:18.215Z,39.72
2023-01-30T00:53:45.728Z,41.28
2023-01-30T00:56:13.150Z,38.90
2023-01-30T00:58:40.540Z,37.65
2023-01-30T01:01:07.924Z,40.75
2023-01-30T01:03:35.744Z,40.05
2023-01-30T01:06:03.125Z,39.15
2023-01-30T01:08:30.662Z,37.42
2023-01-30T01:10:58.082Z,37.80
2023-01-30T01:13:25.499Z,34.97
2023-01-30T01:15:52.919Z,38.10
2023-01-30T01:18:20.345Z,38.08
2023-01-30T01:20:47.825Z,37.13
2023-01-30T01:23:15.416Z,36.35
2023-01-30T01:25:42.947Z,34.17
2023-01-30T01:28:10.377Z,32.17
2023-01-30T01:30:39.160Z,32.05
2023-01-30T01:33:06.720Z,30.13
2023-01-30T01:35:34.137Z,28.77
2023-01-30T01:38:01.617Z,27.83
2023-01-30T01:40:47.776Z,27.95
2023-01-30T01:43:18.745Z,26.85
2023-01-30T01:45:46.321Z,26.15
2023-01-30T01:48:15.540Z,27.98
2023-01-30T01:50:45.212Z,29.73
2023-01-30T01:53:12.829Z,29.88
2023-01-30T01:55:40.235Z,29.02
2023-01-30T01:58:14.984Z,29.88
2023-01-30T02:00:42.444Z,31.52
2023-01-30T02:03:11.347Z,30.20
2023-01-30T02:05:39.873Z,30.13
2023-01-30T02:08:15.259Z,30.15
2023-01-30T02:10:47.059Z,27.15
2023-01-30T02:13:14.698Z,30.35
2023-01-30T02:15:42.104Z,35.60
2023-01-30T02:18:09.554Z,36.20
2023-01-30T02:21:09.356Z,36.10
2023-01-30T02:23:44.724Z,38.10
2023-01-30T02:26:27.244Z,38.22
2023-01-30T02:29:06.846Z,33.75
2023-01-30T02:31:38.580Z,33.95
2023-01-30T02:34:08.893Z,33.45
2023-01-30T02:36:40.113Z,35.65
2023-01-30T02:39:14.019Z,33.17
2023-01-30T02:41:53.305Z,33.05
2023-01-30T02:44:39.412Z,34.88
2023-01-30T02:47:14.840Z,34.65
2023-01-30T02:49:43.839Z,33.83
2023-01-30T02:52:11.647Z,34.90
2023-01-30T02:54:39.106Z,33.95
2023-01-30T02:57:17.282Z,32.80
2023-01-30T02:59:45.337Z,31.67
2023-01-30T03:02:31.218Z,32.30
2023-01-30T03:04:58.682Z,35.25
2023-01-30T03:07:46.309Z,34.28
2023-01-30T03:10:23.768Z,35.72
2023-01-30T03:13:10.295Z,36.10
2023-01-30T03:15:46.266Z,33.35
2023-01-30T03:18:13.675Z,35.70
2023-01-30T03:20:41.385Z,33.28
2023-01-30T03:23:09.051Z,36.17
2023-01-30T03:25:37.075Z,36.53
2023-01-30T03:28:04.885Z,38.40
2023-01-30T03:30:32.333Z,39.40
2023-01-30T03:32:59.740Z,39.03
2023-01-30T03:35:27.307Z,39.60
2023-01-30T03:37:54.707Z,39.33
2023-01-30T03:40:22.119Z,39.15
2023-01-30T03:42:49.499Z,37.67
2023-01-30T03:45:17.109Z,37.40
2023-01-30T03:47:44.691Z,35.50
2023-01-30T03:50:12.128Z,37.15
2023-01-30T03:52:39.561Z,36.10
2023-01-30T03:55:07.230Z,36.50
2023-01-30T03:57:34.880Z,35.03
2023-01-30T04:00:02.484Z,37.85
2023-01-30T04:02:29.904Z,36.58
2023-01-30T04:04:57.413Z,35.00
2023-01-30T04:07:24.899Z,37.83
2023-01-30T04:09:52.272Z,36.15
2023-01-30T04:12:19.744Z,36.70
2023-01-30T04:14:47.231Z,36.03
2023-01-30T04:17:14.657Z,35.15
2023-01-30T04:19:42.053Z,32.88
2023-01-30T04:22:09.466Z,35.20
2023-01-30T04:24:36.869Z,34.95
2023-01-30T04:27:04.328Z,37.72
2023-01-30T04:29:31.763Z,34.33
2023-01-30T04:31:59.141Z,35.58
2023-01-30T04:34:26.771Z,37.10
2023-01-30T04:36:54.191Z,35.05
2023-01-30T04:39:22.185Z,37.47
2023-01-30T04:41:49.688Z,38.10
2023-01-30T04:44:17.088Z,37.58
2023-01-30T04:46:44.538Z,39.50
2023-01-30T04:49:12.060Z,38.47
2023-01-30T04:51:39.586Z,38.78
2023-01-30T04:54:07.129Z,38.78
2023-01-30T04:56:34.633Z,42.03
2023-01-30T04:59:02.095Z,41.25
2023-01-30T05:01:33.485Z,41.45
2023-01-30T05:04:00.954Z,43.70
2023-01-30T05:06:28.376Z,41.63
2023-01-30T05:08:56.266Z,44.75
2023-01-30T05:11:24.276Z,47.83
2023-01-30T05:13:51.863Z,48.25
2023-01-30T05:16:19.599Z,47.17
2023-01-30T05:18:47.078Z,50.17
2023-01-30T05:21:15.753Z,52.58
2023-01-30T05:23:43.225Z,53.08
2023-01-30T05:26:10.826Z,54.33
2023-01-30T05:28:38.281Z,59.47
2023-01-30T05:31:09.850Z,75.45
2023-01-30T05:33:37.475Z,81.05
2023-01-30T05:36:05.354Z,85.57
2023-01-30T05:38:32.815Z,77.90
2023-01-30T05:41:00.693Z,70.22
2023-01-30T05:43:28.259Z,73.47
2023-01-30T05:45:56.371Z,67.53
2023-01-30T05:48:24.156Z,66.22
2023-01-30T05:50:52.182Z,64.05
2023-01-30T05:53:20.186Z,53.70
2023-01-30T05:55:47.681Z,61.22
2023-01-30T05:58:15.144Z,74.95
2023-01-30T06:00:42.561Z,101.55
2023-01-30T06:03:09.948Z,101.68
2023-01-30T06:05:38.738Z,80.55
2023-01-30T06:08:06.413Z,65.20
2023-01-30T06:10:33.917Z,53.53
2023-01-30T06:13:01.572Z,52.00
2023-01-30T06:15:28.990Z,52.42
2023-01-30T06:17:56.446Z,53.15
2023-01-30T06:20:23.939Z,52.47
2023-01-30T06:22:51.335Z,52.20
2023-01-30T06:25:19.236Z,47.72
2023-01-30T06:27:47.035Z,45.65
2023-01-30T06:30:14.672Z,44.08
2023-01-30T06:32:42.988Z,45.17
2023-01-30T06:35:10.583Z,48.65
2023-01-30T06:37:40.668Z,46.15
2023-01-30T06:40:08.314Z,51.65
2023-01-30T06:42:35.819Z,58.03
2023-01-30T06:45:03.263Z,54.80
2023-01-30T06:47:30.774Z,63.03
2023-01-30T06:49:58.291Z,73.28
2023-01-30T06:52:25.831Z,64.40
2023-01-30T06:54:53.237Z,68.47
2023-01-30T06:57:20.884Z,69.50
2023-01-30T06:59:48.326Z,72.97
2023-01-30T07:02:15.913Z,52.22
2023-01-30T07:04:43.540Z,46.17
2023-01-30T07:07:11.071Z,43.45
2023-01-30T07:09:38.552Z,48.05
2023-01-30T07:12:06.254Z,52.30
2023-01-30T07:14:33.766Z,50.42
2023-01-30T07:17:01.239Z,56.72
2023-01-30T07:19:28.724Z,58.35
2023-01-30T07:21:56.110Z,61.22
2023-01-30T07:24:23.583Z,49.15
2023-01-30T07:26:52.366Z,44.35
2023-01-30T07:29:20.010Z,39.20
2023-01-30T07:31:47.561Z,52.47
2023-01-30T07:34:15.066Z,53.03
2023-01-30T07:36:42.547Z,52.15
2023-01-30T07:39:10.034Z,56.33
2023-01-30T07:41:37.684Z,56.67
2023-01-30T07:44:05.215Z,61.55
2023-01-30T07:46:35.383Z,66.53
2023-01-30T07:49:03.369Z,60.75
2023-01-30T07:51:33.623Z,60.38
2023-01-30T07:54:04.372Z,61.78
2023-01-30T07:56:32.018Z,60.65
2023-01-30T07:58:59.649Z,57.03
2023-01-30T08:01:27.316Z,56.30
2023-01-30T08:03:54.937Z,55.55
2023-01-30T08:06:25.402Z,57.08
2023-01-30T08:08:52.872Z,56.17
2023-01-30T08:11:20.585Z,58.25
2023-01-30T08:13:48.125Z,57.25
2023-01-30T08:16:15.529Z,54.33
2023-01-30T08:18:43.654Z,51.47
2023-01-30T08:21:11.163Z,54.38
2023-01-30T08:23:38.894Z,53.08
2023-01-30T08:26:08.987Z,59.35
2023-01-30T08:28:36.476Z,60.95
2023-01-30T08:31:04.212Z,58.78
2023-01-30T08:33:31.845Z,61.08
2023-01-30T08:35:59.551Z,50.92
2023-01-30T08:38:27.118Z,49.00
2023-01-30T08:40:54.519Z,51.60
2023-01-30T08:46:53.254Z,62.25
2023-01-30T08:49:21.069Z,59.92
2023-01-30T08:51:48.718Z,57.92
2023-01-30T08:54:16.491Z,54.28
2023-01-30T08:56:44.080Z,51.00
2023-01-30T08:59:34.526Z,47.70
2023-01-30T09:02:03.759Z,44.13
2023-01-30T09:04:31.380Z,43.28
2023-01-30T09:06:58.936Z,31.92
2023-01-30T09:09:26.925Z,30.73
2023-01-30T09:11:54.466Z,37.20
2023-01-30T09:15:20.707Z,36.65
2023-01-30T09:17:48.835Z,29.95
2023-01-30T09:20:20.695Z,25.60
2023-01-30T09:22:48.432Z,26.75
2023-01-30T09:25:16.100Z,27.40
2023-01-30T09:27:44.701Z,30.77
2023-01-30T09:30:14.826Z,29.45
2023-01-30T09:32:42.423Z,29.67
2023-01-30T09:35:10.771Z,27.80
2023-01-30T09:37:59.471Z,27.63
2023-01-30T09:43:27.963Z,28.83
2023-01-30T09:46:10.881Z,30.58
2023-01-30T10:00:00.252Z,26.48
2023-01-30T10:02:30.689Z,30.58
2023-01-30T10:05:02.078Z,28.52
2023-01-30T10:07:50.016Z,26.60
2023-01-30T10:10:19.813Z,28.17
2023-01-30T10:13:05.009Z,29.27
2023-01-30T10:15:59.263Z,29.02
2023-01-30T10:18:42.103Z,30.45
2023-01-30T10:21:18.997Z,28.20
2023-01-30T10:23:53.709Z,29.23
2023-01-30T10:26:22.591Z,29.65
2023-01-30T10:29:06.346Z,29.55
2023-01-30T10:31:55.018Z,29.10
2023-01-30T10:34:26.794Z,31.77
2023-01-30T10:36:54.486Z,29.52
2023-01-30T10:39:54.312Z,30.23
2023-01-30T10:42:25.052Z,31.88
2023-01-30T10:44:53.671Z,31.95
2023-01-30T10:47:26.368Z,29.75
2023-01-30T10:49:54.673Z,29.33
2023-01-30T10:52:31.118Z,31.52
2023-01-30T10:55:06.388Z,29.98
2023-01-30T11:01:09.671Z,31.42
2023-01-30T11:03:39.220Z,32.78
2023-01-30T11:06:07.818Z,32.05
2023-01-30T11:08:35.751Z,31.42
2023-01-30T11:11:03.506Z,31.37
2023-01-30T11:14:08.761Z,33.08
2023-01-30T11:16:52.421Z,32.30
2023-01-30T11:19:22.379Z,34.30
2023-01-30T11:21:54.302Z,34.70
2023-01-30T11:24:25.487Z,39.95
2023-01-30T11:26:53.715Z,39.95
2023-01-30T11:29:25.975Z,38.30
2023-01-30T11:31:53.633Z,34.75
2023-01-30T11:34:21.948Z,34.38
2023-01-30T11:36:52.635Z,36.55
2023-01-30T11:39:24.483Z,34.47
2023-01-30T11:42:05.086Z,32.25
2023-01-30T11:44:53.486Z,33.10
2023-01-30T11:47:24.056Z,35.10
2023-01-30T11:50:07.672Z,42.45
2023-01-30T11:52:37.783Z,41.38
2023-01-30T11:55:07.315Z,37.75
2023-01-30T11:57:49.368Z,35.92
2023-01-30T12:00:24.214Z,37.95
2023-01-30T12:02:52.119Z,36.97
2023-01-30T12:05:19.631Z,35.83
2023-01-30T12:07:47.080Z,37.13
2023-01-30T12:10:28.673Z,34.92
2023-01-30T12:12:57.356Z,35.58
2023-01-30T12:15:25.011Z,36.38
2023-01-30T12:18:11.355Z,36.58
2023-01-30T12:20:57.029Z,35.47
2023-01-30T12:23:45.053Z,33.58
2023-01-30T12:26:12.644Z,32.92
2023-01-30T12:28:50.820Z,35.90
2023-01-30T12:31:29.157Z,35.45
2023-01-30T12:33:56.863Z,37.17
2023-01-30T12:36:24.600Z,35.45
2023-01-30T12:38:59.457Z,34.97
2023-01-30T12:47:34.894Z,34.92
2023-01-30T12:50:15.124Z,35.78
2023-01-30T12:53:05.502Z,35.90
2023-01-30T12:56:15.701Z,36.17
2023-01-30T12:59:06.296Z,38.17
2023-01-30T13:01:37.592Z,37.10
2023-01-30T13:04:24.015Z,38.25
2023-01-30T13:07:23.733Z,36.90
2023-01-30T13:09:52.252Z,38.63
2023-01-30T13:12:31.473Z,39.75
2023-01-30T13:15:07.975Z,40.53
2023-01-30T13:20:29.048Z,42.13
2023-01-30T13:23:06.325Z,37.10
2023-01-30T13:25:37.955Z,34.33
2023-01-30T13:28:32.179Z,31.40
2023-01-30T13:30:59.738Z,30.83
2023-01-30T13:33:28.534Z,30.95
2023-01-30T13:36:04.665Z,32.40
2023-01-30T13:38:35.052Z,28.60
2023-01-30T13:41:11.817Z,29.13
2023-01-30T13:53:04.885Z,32.58
2023-01-30T13:55:49.741Z,33.10
2023-01-30T13:58:26.314Z,35.30
2023-01-30T14:04:20.074Z,38.40
2023-01-30T14:06:47.884Z,35.40
2023-01-30T14:09:21.222Z,33.88
2023-01-30T14:11:58.922Z,34.85
2023-01-30T14:20:41.043Z,34.70
2023-01-30T14:23:17.546Z,34.17
2023-01-30T14:25:46.154Z,36.55
2023-01-30T14:28:13.916Z,39.83
2023-01-30T14:39:40.150Z,42.90
2023-01-30T14:51:33.671Z,38.58
2023-01-30T14:54:04.840Z,40.53
2023-01-30T14:56:41.517Z,37.13
2023-01-30T15:02:44.491Z,42.20
2023-01-30T15:05:27.440Z,45.15
2023-01-30T15:07:57.479Z,49.38
2023-01-30T15:10:30.015Z,52.92
2023-01-30T15:16:36.679Z,56.35
2023-01-30T15:19:17.607Z,57.97
2023-01-30T15:22:05.508Z,61.65
2023-01-30T15:24:42.817Z,59.13
2023-01-30T15:27:29.444Z,77.47
2023-01-30T15:30:17.493Z,64.35
2023-01-30T15:32:48.066Z,57.45
2023-01-30T15:35:20.531Z,89.05
2023-01-30T15:37:48.339Z,170.60
2023-01-30T15:40:16.065Z,152.15
2023-01-30T15:42:57.368Z,142.02
2023-01-30T15:45:51.114Z,97.50
2023-01-30T15:51:07.796Z,85.85
2023-01-30T15:53:38.889Z,94.72
2023-01-30T15:56:08.600Z,97.68
2023-01-30T15:58:40.015Z,107.75
2023-01-30T16:01:07.924Z,117.05
2023-01-30T16:03:39.803Z,131.48
2023-01-30T16:06:07.859Z,135.25
2023-01-30T16:33:37.951Z,146.90
